Weather at Mackinac County Airport

Public forecast

Using degrees Fahrenheit for public forecast. Weather courtesy of forecast.io.

Closest aviation weather report (METAR) to Mackinac County Airport

Closest report is Mackinac Island Airport, 4.5 nm (8.4 km) ESE. Retrieved 2021/10/28 11:35 UTC (0 seconds ago):

KMCD 281135Z AUTO 09007KT 10SM CLR 09/09 A2991 RMK AO2 T00920092

Closest aviation forecast (TAF) to Mackinac County Airport

Closest forecast is Pellston Regional Airport of Emmet County Airport, 19.4 nm (36.0 km) S. Retrieved 2021/10/28 06:24 UTC (5 hours ago):

TAF KPLN 280521Z 2806/2906 13006KT P6SM OVC010 FM281400 10005KT P6SM OVC012 FM281600 10009KT P6SM BKN026 FM281800 09010G16KT P6SM BKN220 FM290300 09007KT P6SM BKN150